createdAt,value
2022-11-18T00:05:01.559Z,76.36
2022-11-18T00:10:22.092Z,75.68
2022-11-18T00:15:42.901Z,76.01
2022-11-18T00:21:08.041Z,76.48
2022-11-18T00:26:28.832Z,76.02
2022-11-18T00:31:49.748Z,76.44
2022-11-18T00:37:10.561Z,76.45
2022-11-18T00:42:50.017Z,76.48
2022-11-18T00:48:10.645Z,75.52
2022-11-18T00:53:31.488Z,75.26
2022-11-18T00:58:52.397Z,75.24
2022-11-18T01:04:13.406Z,75.31
2022-11-18T01:09:34.083Z,76.12
2022-11-18T01:14:54.908Z,76.03
2022-11-18T01:20:16.077Z,76.56
2022-11-18T01:25:37.399Z,77.03
2022-11-18T01:31:09.176Z,76.69
2022-11-18T01:36:29.816Z,76.90
2022-11-18T01:41:50.385Z,77.08
2022-11-18T01:47:11.169Z,76.64
2022-11-18T01:52:33.972Z,76.14
2022-11-18T01:57:58.635Z,76.03
2022-11-18T02:03:20.599Z,76.51
2022-11-18T02:08:44.148Z,76.48
2022-11-18T02:14:06.149Z,75.69
2022-11-18T02:19:33.223Z,75.94
2022-11-18T02:25:12.786Z,75.86
2022-11-18T02:30:38.311Z,76.08
2022-11-18T02:36:25.125Z,76.13
2022-11-18T02:41:47.188Z,76.46
2022-11-18T02:47:10.984Z,76.63
2022-11-18T02:52:34.408Z,76.49
2022-11-18T02:57:56.638Z,75.71
2022-11-18T03:03:23.605Z,76.11
2022-11-18T03:09:04.335Z,76.24
2022-11-18T03:14:32.837Z,76.18
2022-11-18T03:19:59.814Z,76.57
2022-11-18T03:25:23.761Z,76.18
2022-11-18T03:30:49.093Z,76.03
2022-11-18T03:36:11.358Z,75.88
2022-11-18T03:41:35.453Z,76.07
2022-11-18T03:47:01.144Z,75.85
2022-11-18T03:52:25.522Z,76.04
2022-11-18T03:58:10.008Z,76.47
2022-11-18T04:03:30.994Z,77.06
2022-11-18T04:08:54.915Z,76.57
2022-11-18T04:14:17.565Z,76.56
2022-11-18T04:19:38.627Z,76.79
2022-11-18T04:24:59.153Z,77.01
2022-11-18T04:30:20.057Z,76.93
2022-11-18T04:35:40.537Z,76.75
2022-11-18T04:41:01.359Z,76.41
2022-11-18T04:46:22.176Z,75.63
2022-11-18T04:51:43.785Z,75.95
2022-11-18T04:57:04.672Z,76.67
2022-11-18T05:02:25.598Z,76.85
2022-11-18T05:07:46.735Z,77.37
2022-11-18T05:13:07.168Z,76.70
2022-11-18T05:18:28.137Z,76.19
2022-11-18T05:23:48.926Z,75.56
2022-11-18T05:29:09.987Z,76.41
2022-11-18T05:34:30.482Z,76.36
2022-11-18T05:39:51.441Z,76.49
2022-11-18T05:45:12.065Z,76.10
2022-11-18T05:50:34.734Z,75.73
2022-11-18T05:55:58.827Z,75.83
2022-11-18T06:01:22.701Z,75.94
2022-11-18T06:06:45.653Z,76.13
2022-11-18T06:12:07.202Z,75.79
2022-11-18T06:17:30.223Z,75.72
2022-11-18T06:22:53.553Z,76.03
2022-11-18T06:28:15.176Z,75.96
2022-11-18T06:33:35.751Z,75.56
2022-11-18T06:38:56.726Z,75.73
2022-11-18T06:44:17.668Z,75.55
2022-11-18T06:49:38.315Z,75.61
2022-11-18T06:54:59.149Z,75.51
2022-11-18T07:00:20.063Z,75.99
2022-11-18T07:05:40.736Z,75.88
2022-11-18T07:11:01.653Z,76.01
2022-11-18T07:16:26.593Z,75.66
2022-11-18T07:21:47.323Z,75.52
2022-11-18T07:27:08.230Z,75.68
2022-11-18T07:32:29.212Z,75.66
2022-11-18T07:37:49.925Z,76.04
2022-11-18T07:43:10.705Z,75.83
2022-11-18T07:48:31.659Z,75.81
2022-11-18T07:53:52.546Z,75.66
2022-11-18T07:59:13.572Z,76.08
2022-11-18T08:04:37.070Z,75.71
2022-11-18T08:09:57.557Z,75.78
2022-11-18T08:15:18.521Z,76.32
2022-11-18T08:20:39.539Z,76.13
2022-11-18T08:26:18.299Z,75.71
2022-11-18T08:31:39.178Z,76.83
2022-11-18T08:36:59.670Z,76.07
2022-11-18T08:42:24.495Z,76.03
2022-11-18T08:47:45.727Z,76.25
2022-11-18T08:53:06.748Z,76.21
2022-11-18T08:58:28.078Z,76.43
2022-11-18T09:03:49.092Z,76.56
2022-11-18T09:09:10.072Z,76.26
2022-11-18T09:15:12.525Z,75.91
2022-11-18T09:20:11.676Z,75.70
2022-11-18T09:25:32.480Z,76.14
2022-11-18T09:30:53.293Z,76.10
2022-11-18T09:36:19.004Z,76.21
2022-11-18T09:41:39.737Z,76.04
2022-11-18T09:47:00.655Z,75.96
2022-11-18T09:52:21.434Z,76.19
2022-11-18T09:57:51.321Z,75.65
2022-11-18T10:03:16.255Z,82.37
2022-11-18T10:08:37.830Z,76.45
2022-11-18T10:14:04.465Z,76.38
2022-11-18T10:19:40.262Z,76.24
2022-11-18T10:25:01.240Z,76.40
2022-11-18T10:30:23.850Z,76.54
2022-11-18T10:35:44.829Z,78.69
2022-11-18T10:41:07.977Z,76.22
2022-11-18T10:46:28.482Z,76.04
2022-11-18T10:52:04.582Z,75.90
2022-11-18T10:57:25.381Z,75.95
2022-11-18T11:02:47.740Z,76.23
2022-11-18T11:08:36.576Z,76.11
2022-11-18T11:14:13.413Z,75.77
2022-11-18T11:19:41.877Z,75.94
2022-11-18T11:25:02.611Z,76.20
2022-11-18T11:30:24.142Z,76.39
2022-11-18T11:35:54.922Z,81.63
2022-11-18T11:41:15.715Z,76.45
2022-11-18T11:47:21.042Z,76.60
2022-11-18T11:53:00.577Z,76.03
2022-11-18T11:58:40.194Z,75.80
2022-11-18T12:04:04.114Z,76.61
2022-11-18T12:09:34.130Z,76.33
2022-11-18T12:14:57.812Z,76.34
2022-11-18T12:20:38.727Z,76.16
2022-11-18T12:26:06.618Z,75.60
2022-11-18T12:31:31.166Z,75.76
2022-11-18T12:36:52.369Z,75.69
2022-11-18T12:42:51.067Z,75.17
2022-11-18T12:48:27.218Z,76.05
2022-11-18T12:53:49.867Z,75.77
2022-11-18T12:59:13.067Z,76.48
2022-11-18T13:04:33.942Z,75.84
2022-11-18T13:09:54.513Z,75.40
2022-11-18T13:15:34.156Z,75.78
2022-11-18T13:21:19.328Z,75.36
2022-11-18T13:26:41.784Z,75.12
2022-11-18T13:32:17.240Z,75.98
2022-11-18T13:37:47.978Z,76.21
2022-11-18T13:43:11.062Z,75.65
2022-11-18T13:48:33.176Z,75.42
2022-11-18T13:53:54.075Z,76.02
2022-11-18T13:59:20.126Z,76.36
2022-11-18T14:04:49.719Z,75.97
2022-11-18T14:10:15.455Z,75.99
2022-11-18T14:15:43.214Z,76.05
2022-11-18T14:21:06.014Z,75.60
2022-11-18T14:26:28.269Z,76.42
2022-11-18T14:32:24.303Z,76.38
2022-11-18T14:37:45.840Z,75.93
2022-11-18T14:43:07.201Z,76.07
2022-11-18T14:48:32.412Z,75.63
2022-11-18T14:53:53.224Z,75.40
2022-11-18T14:59:14.602Z,75.90
2022-11-18T15:04:35.246Z,75.41
2022-11-18T15:09:56.080Z,75.28
2022-11-18T15:15:17.282Z,75.54
2022-11-18T15:20:38.078Z,75.53
2022-11-18T15:25:58.944Z,76.26
2022-11-18T15:31:19.510Z,75.85
2022-11-18T15:36:40.572Z,75.80
2022-11-18T15:42:01.023Z,74.93
2022-11-18T15:47:21.847Z,75.35
2022-11-18T15:52:42.579Z,76.17
2022-11-18T15:58:03.293Z,75.94
2022-11-18T16:03:24.146Z,75.60
2022-11-18T16:08:45.128Z,75.10
2022-11-18T16:14:10.368Z,74.77
2022-11-18T16:19:33.582Z,74.31
2022-11-18T16:24:54.168Z,74.78
2022-11-18T16:30:33.727Z,74.95
2022-11-18T16:35:55.708Z,75.25
2022-11-18T16:41:31.642Z,75.25
2022-11-18T16:46:54.139Z,75.64
2022-11-18T16:52:14.710Z,74.83
2022-11-18T16:57:35.555Z,74.87
2022-11-18T17:02:56.129Z,75.02
2022-11-18T17:08:16.975Z,75.09
2022-11-18T17:13:38.242Z,74.56
2022-11-18T17:19:00.131Z,74.79
2022-11-18T17:24:22.249Z,74.67
2022-11-18T17:29:45.318Z,74.93
2022-11-18T17:35:07.905Z,74.63
2022-11-18T17:40:29.157Z,75.26
2022-11-18T17:45:53.866Z,74.90
2022-11-18T17:51:15.800Z,74.21
2022-11-18T17:56:37.778Z,74.60
2022-11-18T18:01:59.780Z,74.21
2022-11-18T18:07:20.437Z,73.96
2022-11-18T18:12:59.922Z,73.92
2022-11-18T18:18:20.603Z,73.77
2022-11-18T18:23:41.499Z,74.15
2022-11-18T18:29:03.075Z,74.02
2022-11-18T18:34:23.579Z,74.39
2022-11-18T18:39:44.449Z,74.44
2022-11-18T18:45:23.945Z,74.45
2022-11-18T18:50:44.559Z,74.26
2022-11-18T18:56:05.548Z,74.23
2022-11-18T19:01:27.286Z,74.44
2022-11-18T19:06:55.026Z,74.58
2022-11-18T19:12:38.104Z,74.35
2022-11-18T19:17:58.771Z,74.31
2022-11-18T19:23:20.671Z,73.95
2022-11-18T19:28:41.381Z,74.04
2022-11-18T19:34:02.166Z,73.83
2022-11-18T19:39:22.961Z,74.00
2022-11-18T19:44:43.812Z,73.88
2022-11-18T19:50:05.519Z,73.77
2022-11-18T19:55:26.098Z,73.98
2022-11-18T20:00:46.883Z,74.09
2022-11-18T20:06:09.736Z,73.99
2022-11-18T20:11:30.514Z,73.68
2022-11-18T20:16:54.459Z,73.59
2022-11-18T20:22:15.165Z,73.68
2022-11-18T20:27:37.933Z,73.89
2022-11-18T20:32:59.907Z,73.30
2022-11-18T20:38:22.929Z,73.48
2022-11-18T20:43:44.299Z,73.02
2022-11-18T20:49:04.822Z,73.69
2022-11-18T20:54:25.787Z,73.25
2022-11-18T20:59:46.440Z,73.56
2022-11-18T21:05:07.731Z,73.52
2022-11-18T21:10:28.607Z,73.26
2022-11-18T21:15:49.831Z,73.16
2022-11-18T21:21:29.195Z,73.85
2022-11-18T21:26:50.828Z,73.60
2022-11-18T21:32:11.390Z,73.47
2022-11-18T21:37:33.233Z,73.14
2022-11-18T21:42:55.810Z,73.11
2022-11-18T21:48:16.463Z,73.30
2022-11-18T21:53:38.680Z,72.58
2022-11-18T21:59:00.840Z,72.97
2022-11-18T22:04:40.333Z,72.87
2022-11-18T22:10:00.980Z,72.51
2022-11-18T22:15:21.617Z,73.00
2022-11-18T22:20:42.636Z,72.73
2022-11-18T22:26:11.006Z,72.82
2022-11-18T22:31:31.888Z,73.76
2022-11-18T22:36:52.385Z,73.21
2022-11-18T22:42:31.721Z,72.54
2022-11-18T22:47:52.347Z,71.86
2022-11-18T22:53:13.155Z,72.14
2022-11-18T22:58:34.161Z,72.23
2022-11-18T23:03:54.655Z,72.07
2022-11-18T23:09:15.484Z,72.29
2022-11-18T23:14:36.182Z,71.78
2022-11-18T23:19:57.245Z,71.66
2022-11-18T23:25:18.014Z,71.57
2022-11-18T23:30:38.922Z,71.69
2022-11-18T23:36:00.067Z,72.48
2022-11-18T23:41:21.251Z,72.15
2022-11-18T23:46:41.906Z,72.56
2022-11-18T23:52:02.801Z,71.48
2022-11-18T23:57:23.684Z,71.37
